Time;durP1;ratioP1;P1;durP2;ratioP2;P2;SDS_P1;SDS_P2;PMS_P1;PMS_P2;Temp;Humidity;BMP_temperature;BMP_pressure;BME280_temperature;BME280_humidity;BME280_pressure;Samples;Min_cycle;Max_cycle;Signal;HPM_P1;HPM_P2
2023/05/04 00:14:36;;;;;;;17.38;10.15;;;;;;;5.67;60.34;101121.13;30863671;28;106898;-64
2023/05/04 00:29:36;;;;;;;18.85;10.23;;;;;;;5.40;61.09;101116.94;30862357;28;96706;-67
2023/05/04 00:44:40;;;;;;;20.02;12.52;;;;;;;5.11;61.74;101099.72;30859932;28;97119;-66
2023/05/04 00:59:40;;;;;;;29.87;14.00;;;;;;;4.94;62.36;101114.19;30859532;28;97453;-63
2023/05/04 01:14:42;;;;;;;24.63;12.85;;;;;;;4.84;62.99;101119.25;30857254;28;96973;-65
2023/05/04 01:30:06;;;;;;;20.27;12.02;;;;;;;4.66;63.23;101127.56;30856936;28;97649;-62
2023/05/04 01:45:07;;;;;;;39.15;16.98;;;;;;;4.54;63.80;101112.59;30850581;28;97030;-62
2023/05/04 02:00:08;;;;;;;64.10;30.70;;;;;;;4.41;64.00;101123.16;30855021;28;97228;-62
2023/05/04 02:15:08;;;;;;;87.38;40.95;;;;;;;4.28;64.77;101117.03;30858131;28;96733;-65
2023/05/04 02:30:09;;;;;;;56.33;26.00;;;;;;;4.14;64.73;101110.94;30874028;28;97938;-63
2023/05/04 02:45:10;;;;;;;62.05;29.35;;;;;;;4.04;65.27;101110.72;30870779;28;97636;-63
2023/05/04 03:00:11;;;;;;;46.50;21.00;;;;;;;3.94;65.63;101111.44;30869488;28;97755;-62
2023/05/04 03:15:12;;;;;;;45.63;25.02;;;;;;;3.83;66.20;101112.19;30868790;28;97433;-61
2023/05/04 03:30:13;;;;;;;36.80;22.30;;;;;;;3.75;66.21;101120.63;30866904;28;99580;-62
2023/05/04 03:45:13;;;;;;;43.72;23.70;;;;;;;3.85;66.95;101126.94;30864813;28;96775;-64
2023/05/04 04:00:14;;;;;;;32.60;17.35;;;;;;;4.06;67.08;101121.19;30861182;28;96648;-63
2023/05/04 04:15:15;;;;;;;30.30;16.35;;;;;;;4.43;66.96;101129.19;30860349;28;97133;-62
2023/05/04 04:30:15;;;;;;;31.63;11.85;;;;;;;4.86;66.99;101123.47;30858831;28;96808;-61
2023/05/04 04:45:16;;;;;;;20.40;11.00;;;;;;;5.43;66.63;101123.78;30854159;28;97421;-64
2023/05/04 05:00:17;;;;;;;15.88;8.02;;;;;;;6.25;65.78;101130.88;30855905;28;97470;-61
2023/05/04 05:15:17;;;;;;;16.93;7.13;;;;;;;7.12;64.70;101130.19;30854462;28;96757;-65
2023/05/04 05:30:18;;;;;;;13.07;7.43;;;;;;;8.14;62.86;101127.88;30848889;28;96859;-65
2023/05/04 05:45:19;;;;;;;13.23;6.72;;;;;;;9.14;60.06;101122.81;30840671;28;97048;-65
2023/05/04 06:00:19;;;;;;;10.77;6.72;;;;;;;10.13;58.04;101127.91;30848802;28;96772;-64
2023/05/04 06:15:19;;;;;;;10.07;5.53;;;;;;;11.20;55.29;101130.25;30848065;28;97043;-60
2023/05/04 06:30:23;;;;;;;12.70;5.95;;;;;;;12.10;52.09;101138.22;30846161;28;96653;-62
2023/05/04 06:45:23;;;;;;;;;;;;;;;13.08;49.10;101135.13;30843353;28;97564;-68
2023/05/04 07:00:24;;;;;;;9.18;6.00;;;;;;;13.62;46.04;101140.06;30846252;28;96826;-66
2023/05/04 07:15:24;;;;;;;8.90;5.13;;;;;;;14.29;43.24;101138.16;30863646;28;96709;-61
2023/05/04 07:30:25;;;;;;;10.85;5.07;;;;;;;15.02;41.24;101130.84;30860199;28;97186;-63
2023/05/04 07:45:25;;;;;;;8.40;4.00;;;;;;;16.03;37.60;101120.00;30858733;28;97610;-62
2023/05/04 08:00:26;;;;;;;7.63;3.00;;;;;;;16.07;36.11;101110.56;30856771;28;96905;-62
2023/05/04 08:15:26;;;;;;;11.20;3.67;;;;;;;17.04;34.40;101106.03;30856721;28;96729;-61
2023/05/04 08:30:27;;;;;;;4.47;2.47;;;;;;;17.43;30.90;101105.59;30858018;28;96790;-67
2023/05/04 08:45:28;;;;;;;3.78;2.30;;;;;;;17.81;30.95;101098.22;30857083;28;96758;-62
2023/05/04 09:00:29;;;;;;;4.97;2.60;;;;;;;19.24;29.67;101082.31;30851388;28;96776;-64
2023/05/04 09:15:30;;;;;;;4.07;2.33;;;;;;;19.30;28.68;101066.31;30851278;28;97240;-62
2023/05/04 09:30:30;;;;;;;5.10;3.17;;;;;;;21.75;26.09;101069.31;30850723;28;96720;-62
2023/05/04 09:45:41;;;;;;;3.97;2.10;;;;;;;22.88;24.86;101055.47;30850415;28;99252;-65
2023/05/04 10:00:42;;;;;;;2.77;1.80;;;;;;;23.01;24.24;101036.25;30741837;28;96902;-62
2023/05/04 10:16:15;;;;;;;7.40;2.30;;;;;;;23.83;22.34;101040.16;30744206;28;97227;-65
2023/05/04 10:31:16;;;;;;;3.97;2.07;;;;;;;24.17;22.32;101021.31;30730118;28;97484;-65
2023/05/04 10:46:21;;;;;;;3.47;1.87;;;;;;;24.44;21.05;101004.38;30830120;28;97124;-66
2023/05/04 11:01:22;;;;;;;5.33;2.00;;;;;;;24.26;20.69;100978.19;30796457;28;97178;-62
2023/05/04 11:16:23;;;;;;;3.67;1.95;;;;;;;24.75;20.49;100964.13;30774959;28;97079;-66
2023/05/04 11:31:24;;;;;;;4.77;2.03;;;;;;;24.96;20.36;100938.88;30741066;28;97206;-61
2023/05/04 11:46:25;;;;;;;3.10;1.90;;;;;;;24.43;20.49;100910.97;30758973;28;96974;-61
2023/05/04 12:01:33;;;;;;;3.43;1.63;;;;;;;24.32;20.58;100918.13;30859519;28;96788;-61
2023/05/04 12:16:35;;;;;;;6.03;2.70;;;;;;;23.43;20.85;100913.09;30857439;28;97292;-61
2023/05/04 12:31:35;;;;;;;4.67;2.03;;;;;;;24.06;20.82;100889.63;30856402;28;97590;-62
2023/05/04 12:46:35;;;;;;;;;;;;;;;23.97;21.49;100880.19;30854861;28;97706;-62
2023/05/04 13:01:36;;;;;;;2.67;1.73;;;;;;;23.93;21.24;100868.97;30852564;28;97136;-61
2023/05/04 13:16:36;;;;;;;3.55;1.70;;;;;;;24.16;20.89;100857.13;30851543;28;97454;-66
2023/05/04 13:31:36;;;;;;;5.53;1.70;;;;;;;23.80;20.55;100834.69;30849223;28;97198;-65
2023/05/04 13:46:37;;;;;;;;;;;;;;;23.07;21.16;100815.22;30848945;28;113909;-64
2023/05/04 14:01:37;;;;;;;2.93;1.30;;;;;;;23.11;21.71;100802.84;30852606;28;97057;-63
2023/05/04 14:16:38;;;;;;;2.38;1.58;;;;;;;22.58;21.98;100785.63;30860047;28;97810;-70
2023/05/04 14:31:38;;;;;;;2.50;1.33;;;;;;;22.70;22.55;100768.50;30866640;28;97300;-65
2023/05/04 14:46:38;;;;;;;4.27;1.70;;;;;;;22.62;22.54;100751.50;30860005;28;108117;-63
2023/05/04 15:01:38;;;;;;;5.80;2.43;;;;;;;22.01;23.28;100742.69;30857010;28;97088;-67
2023/05/04 15:16:39;;;;;;;3.13;1.40;;;;;;;21.41;23.92;100732.69;30867124;28;113215;-62
2023/05/04 15:31:39;;;;;;;4.80;1.57;;;;;;;21.25;24.57;100726.81;30863164;28;97278;-68
2023/05/04 15:46:40;;;;;;;2.53;1.50;;;;;;;21.09;25.03;100714.75;30860840;28;104003;-65
2023/05/04 16:01:40;;;;;;;2.67;1.57;;;;;;;20.79;25.21;100709.28;30860385;28;97372;-63
2023/05/04 16:16:41;;;;;;;4.20;1.70;;;;;;;20.42;25.55;100695.66;30852971;28;96821;-65
2023/05/04 16:31:41;;;;;;;4.43;1.58;;;;;;;19.94;26.29;100689.84;30848988;28;97350;-65
2023/05/04 16:46:41;;;;;;;1.83;1.30;;;;;;;19.54;26.83;100675.75;30848210;28;97892;-63
2023/05/04 17:01:42;;;;;;;2.03;1.33;;;;;;;18.92;27.85;100666.31;30845044;28;96821;-65
2023/05/04 17:16:43;;;;;;;2.20;1.40;;;;;;;18.38;28.58;100670.97;30844558;28;96773;-66
2023/05/04 17:31:43;;;;;;;3.15;1.50;;;;;;;17.63;29.58;100678.44;30857199;28;105579;-65
2023/05/04 17:46:43;;;;;;;9.02;2.90;;;;;;;16.95;30.61;100671.19;30970208;28;108871;-62
2023/05/04 18:01:44;;;;;;;9.65;2.80;;;;;;;16.31;31.56;100681.16;30973600;28;101373;-66
2023/05/04 18:16:45;;;;;;;4.28;1.90;;;;;;;15.79;32.24;100692.09;30912968;28;97028;-61
2023/05/04 18:31:45;;;;;;;8.35;3.83;;;;;;;15.38;33.59;100700.75;30847910;28;96777;-64
2023/05/04 18:46:45;;;;;;;4.15;2.22;;;;;;;15.03;34.14;100708.59;30849281;28;96828;-65
2023/05/04 19:01:46;;;;;;;7.40;3.00;;;;;;;14.74;35.15;100699.53;30850293;28;97247;-62
2023/05/04 19:16:46;;;;;;;7.38;2.70;;;;;;;14.39;35.83;100708.09;30860606;28;96744;-64
2023/05/04 19:31:46;;;;;;;6.82;3.10;;;;;;;14.15;36.39;100711.81;30866731;28;105966;-60
2023/05/04 19:46:50;;;;;;;9.40;5.10;;;;;;;13.95;36.76;100707.97;30862988;28;108530;-65
2023/05/04 20:01:50;;;;;;;17.67;8.77;;;;;;;13.70;37.45;100700.97;30863335;28;97059;-66
2023/05/04 20:16:51;;;;;;;20.75;9.55;;;;;;;13.49;38.38;100685.56;30860983;28;115124;-64
2023/05/04 20:31:51;;;;;;;13.80;7.90;;;;;;;13.30;39.60;100699.34;30859557;28;96746;-61
2023/05/04 20:46:52;;;;;;;16.17;7.50;;;;;;;12.98;41.49;100682.44;30856818;28;97053;-60
2023/05/04 21:01:52;;;;;;;18.15;9.68;;;;;;;12.74;42.39;100678.88;30858592;28;96697;-60
2023/05/04 21:16:52;;;;;;;15.35;6.85;;;;;;;12.46;43.26;100665.91;30857616;28;105164;-61
2023/05/04 21:31:53;;;;;;;15.52;7.43;;;;;;;12.25;44.68;100662.97;30854956;28;96760;-64
2023/05/04 21:46:54;;;;;;;13.27;6.40;;;;;;;12.07;46.02;100661.31;30854994;28;96738;-65
2023/05/04 22:01:55;;;;;;;9.10;4.40;;;;;;;11.80;45.82;100643.78;30854803;28;97218;-64
2023/05/04 22:16:55;;;;;;;8.75;5.20;;;;;;;11.49;46.58;100639.91;30854304;28;97365;-60
2023/05/04 22:31:56;;;;;;;13.27;6.38;;;;;;;11.14;48.12;100639.19;30856587;28;96753;-60
2023/05/04 22:46:56;;;;;;;9.35;6.20;;;;;;;10.82;48.57;100623.94;30872226;28;116497;-65
2023/05/04 23:01:57;;;;;;;10.50;6.32;;;;;;;10.60;49.67;100620.84;30871760;28;96903;-65
2023/05/04 23:16:57;;;;;;;13.30;6.05;;;;;;;10.27;50.57;100620.66;30870052;28;97504;-60
2023/05/04 23:31:57;;;;;;;15.18;7.90;;;;;;;9.95;51.30;100615.94;30867887;28;97310;-60
2023/05/04 23:46:58;;;;;;;17.90;8.32;;;;;;;9.71;52.42;100604.13;30865466;28;107147;-60
